createdAt,value
2022-11-07T00:02:10.265Z,32.78
2022-11-07T00:04:38.469Z,39.40
2022-11-07T00:07:08.551Z,32.88
2022-11-07T00:09:36.713Z,43.08
2022-11-07T00:12:05.383Z,38.80
2022-11-07T00:14:33.421Z,39.58
2022-11-07T00:17:01.425Z,36.83
2022-11-07T00:19:29.442Z,33.33
2022-11-07T00:21:57.433Z,36.08
2022-11-07T00:24:26.836Z,39.60
2022-11-07T00:26:54.860Z,38.05
2022-11-07T00:29:22.921Z,38.75
2022-11-07T00:31:51.479Z,33.25
2022-11-07T00:34:19.504Z,32.10
2022-11-07T00:36:47.502Z,35.67
2022-11-07T00:39:15.544Z,43.17
2022-11-07T00:41:44.975Z,34.42
2022-11-07T00:44:12.996Z,36.05
2022-11-07T00:46:41.010Z,39.38
2022-11-07T00:49:09.186Z,35.75
2022-11-07T00:51:37.260Z,42.22
2022-11-07T00:54:06.577Z,37.03
2022-11-07T00:56:34.582Z,35.70
2022-11-07T00:59:04.036Z,39.42
2022-11-07T01:01:34.797Z,39.58
2022-11-07T01:04:20.959Z,35.90
2022-11-07T01:06:49.250Z,30.08
2022-11-07T01:09:19.929Z,40.55
2022-11-07T01:11:50.693Z,32.80
2022-11-07T01:14:22.550Z,32.72
2022-11-07T01:16:51.107Z,42.37
2022-11-07T01:19:19.777Z,39.20
2022-11-07T01:21:48.140Z,40.60
2022-11-07T01:24:16.860Z,38.92
2022-11-07T01:26:48.013Z,39.67
2022-11-07T01:29:16.806Z,31.10
2022-11-07T01:31:46.301Z,33.20
2022-11-07T01:34:14.670Z,33.60
2022-11-07T01:36:42.662Z,37.22
2022-11-07T01:39:10.755Z,35.60
2022-11-07T01:41:39.562Z,38.65
2022-11-07T01:44:40.690Z,35.55
2022-11-07T01:47:11.378Z,29.70
2022-11-07T01:49:42.591Z,36.90
2022-11-07T01:52:16.178Z,36.00
2022-11-07T01:54:49.916Z,32.42
2022-11-07T01:57:23.548Z,31.88
2022-11-07T01:59:53.928Z,31.95
2022-11-07T02:02:25.756Z,35.67
2022-11-07T02:04:54.375Z,34.90
2022-11-07T02:07:24.431Z,35.30
2022-11-07T02:09:53.534Z,36.95
2022-11-07T02:12:24.311Z,38.15
2022-11-07T02:14:52.318Z,41.45
2022-11-07T02:17:20.634Z,35.67
2022-11-07T02:19:52.620Z,35.38
2022-11-07T02:22:30.492Z,34.58
2022-11-07T02:25:02.581Z,38.72
2022-11-07T02:27:32.978Z,36.72
2022-11-07T02:30:04.627Z,38.92
2022-11-07T02:32:32.623Z,38.30
2022-11-07T02:35:02.558Z,37.88
2022-11-07T02:37:32.330Z,40.00
2022-11-07T02:40:03.884Z,30.75
2022-11-07T02:42:44.468Z,31.85
2022-11-07T02:45:15.343Z,41.90
2022-11-07T02:47:43.581Z,45.58
2022-11-07T02:50:14.706Z,35.50
2022-11-07T02:52:42.940Z,28.98
2022-11-07T02:55:14.700Z,26.33
2022-11-07T02:57:42.995Z,35.25
2022-11-07T03:00:13.866Z,30.33
2022-11-07T03:02:47.101Z,31.95
2022-11-07T03:05:16.733Z,29.73
2022-11-07T03:07:45.871Z,33.38
2022-11-07T03:10:16.527Z,31.05
2022-11-07T03:12:44.931Z,28.40
2022-11-07T03:15:13.827Z,28.33
2022-11-07T03:17:41.903Z,24.95
2022-11-07T03:20:11.254Z,27.60
2022-11-07T03:22:39.977Z,34.30
2022-11-07T03:25:08.879Z,43.70
2022-11-07T03:27:38.277Z,43.42
2022-11-07T03:30:07.159Z,44.35
2022-11-07T03:32:35.231Z,36.75
2022-11-07T03:35:03.268Z,31.13
2022-11-07T03:37:31.248Z,37.78
2022-11-07T03:39:59.276Z,35.42
2022-11-07T03:42:27.804Z,34.42
2022-11-07T03:44:57.223Z,35.35
2022-11-07T03:47:25.211Z,33.97
2022-11-07T03:49:53.206Z,30.75
2022-11-07T03:52:21.201Z,29.52
2022-11-07T03:54:49.195Z,30.10
2022-11-07T03:57:17.179Z,36.25
2022-11-07T03:59:45.268Z,35.42
2022-11-07T04:02:14.824Z,33.65
2022-11-07T04:04:43.207Z,30.08
2022-11-07T04:07:11.330Z,28.10
2022-11-07T04:09:39.332Z,25.95
2022-11-07T04:12:25.430Z,32.03
2022-11-07T04:15:11.345Z,30.70
2022-11-07T04:17:42.024Z,34.88
2022-11-07T04:20:11.274Z,31.77
2022-11-07T04:22:39.282Z,35.28
2022-11-07T04:25:08.424Z,45.33
2022-11-07T04:27:44.363Z,31.10
2022-11-07T04:30:23.779Z,30.35
2022-11-07T04:32:54.675Z,37.55
2022-11-07T04:35:24.877Z,36.17
2022-11-07T04:37:53.261Z,34.92
2022-11-07T04:40:22.049Z,41.40
2022-11-07T04:42:50.803Z,39.42
2022-11-07T04:45:19.338Z,29.27
2022-11-07T04:47:48.191Z,38.47
2022-11-07T04:50:19.953Z,41.80
2022-11-07T04:52:49.089Z,40.55
2022-11-07T04:55:23.419Z,34.38
2022-11-07T04:57:51.462Z,38.78
2022-11-07T05:00:21.407Z,40.33
2022-11-07T05:02:50.525Z,35.83
2022-11-07T05:05:20.334Z,31.35
2022-11-07T05:07:49.070Z,31.70
2022-11-07T05:10:20.588Z,33.08
2022-11-07T05:12:52.893Z,30.30
2022-11-07T05:15:21.552Z,31.98
2022-11-07T05:17:49.926Z,33.97
2022-11-07T05:20:28.723Z,43.03
2022-11-07T05:23:17.851Z,37.47
2022-11-07T05:25:48.482Z,40.58
2022-11-07T05:28:25.693Z,40.88
2022-11-07T05:30:59.334Z,44.60
2022-11-07T05:33:27.611Z,37.65
2022-11-07T05:35:57.506Z,42.97
2022-11-07T05:38:25.607Z,37.47
2022-11-07T05:40:53.649Z,44.40
2022-11-07T05:43:21.665Z,47.65
2022-11-07T05:45:49.708Z,46.75
2022-11-07T05:48:17.704Z,56.50
2022-11-07T05:50:45.731Z,54.53
2022-11-07T05:53:15.505Z,47.55
2022-11-07T05:55:43.934Z,51.42
2022-11-07T05:58:12.794Z,47.40
2022-11-07T06:00:41.072Z,46.03
2022-11-07T06:03:14.488Z,50.40
2022-11-07T06:05:43.970Z,52.50
2022-11-07T06:08:16.249Z,47.38
2022-11-07T06:10:44.918Z,53.30
2022-11-07T06:13:15.685Z,51.05
2022-11-07T06:15:47.352Z,48.38
2022-11-07T06:18:17.147Z,48.47
2022-11-07T06:20:46.885Z,49.95
2022-11-07T06:23:18.914Z,55.90
2022-11-07T06:25:47.458Z,43.13
2022-11-07T06:28:17.833Z,51.25
2022-11-07T06:30:46.115Z,54.60
2022-11-07T06:33:16.592Z,65.70
2022-11-07T06:35:45.211Z,54.78
2022-11-07T06:38:15.186Z,50.28
2022-11-07T06:40:44.919Z,53.67
2022-11-07T06:43:15.151Z,55.08
2022-11-07T06:45:43.619Z,55.63
2022-11-07T06:48:12.397Z,56.60
2022-11-07T06:50:40.644Z,55.58
2022-11-07T06:53:10.469Z,48.83
2022-11-07T06:55:39.535Z,68.28
2022-11-07T06:58:09.029Z,64.45
2022-11-07T07:00:38.145Z,67.53
2022-11-07T07:03:06.738Z,68.68
2022-11-07T07:05:35.311Z,68.20
2022-11-07T07:08:03.775Z,64.28
2022-11-07T07:10:32.352Z,70.38
2022-11-07T07:13:01.596Z,55.97
2022-11-07T07:15:42.374Z,61.72
2022-11-07T07:18:18.510Z,65.68
2022-11-07T07:20:47.099Z,65.53
2022-11-07T07:23:15.165Z,58.03
2022-11-07T07:25:43.173Z,51.22
2022-11-07T07:28:11.350Z,62.63
2022-11-07T07:30:40.842Z,48.15
2022-11-07T07:33:08.943Z,45.65
2022-11-07T07:35:36.970Z,47.20
2022-11-07T07:38:05.011Z,55.97
2022-11-07T07:40:33.549Z,58.58
2022-11-07T07:43:01.534Z,40.95
2022-11-07T07:45:29.565Z,46.67
2022-11-07T07:48:02.711Z,48.33
2022-11-07T07:50:30.833Z,42.17
2022-11-07T07:52:59.188Z,38.38
2022-11-07T07:55:27.265Z,39.72
2022-11-07T07:57:55.259Z,47.92
2022-11-07T08:00:23.369Z,41.80
2022-11-07T08:02:51.374Z,45.80
2022-11-07T08:05:20.838Z,43.55
2022-11-07T08:07:50.536Z,40.50
2022-11-07T08:10:42.150Z,44.72
2022-11-07T08:13:08.285Z,42.03
2022-11-07T08:15:36.358Z,42.22
2022-11-07T08:18:04.559Z,46.20
2022-11-07T08:20:34.023Z,44.60
2022-11-07T08:23:03.542Z,44.95
2022-11-07T08:25:31.829Z,37.15
2022-11-07T08:28:00.010Z,37.78
2022-11-07T08:30:28.430Z,38.90
2022-11-07T08:32:56.816Z,43.95
2022-11-07T08:35:24.842Z,40.22
2022-11-07T08:37:54.923Z,40.33
2022-11-07T08:40:23.348Z,40.42
2022-11-07T08:42:51.561Z,39.45
2022-11-07T08:45:19.738Z,45.58
2022-11-07T08:47:47.756Z,38.22
2022-11-07T08:50:15.906Z,42.03
2022-11-07T08:52:43.891Z,43.70
2022-11-07T08:55:13.382Z,42.65
2022-11-07T08:57:41.796Z,36.55
2022-11-07T09:00:11.019Z,39.35
2022-11-07T09:05:27.091Z,41.90
2022-11-07T09:07:55.123Z,38.03
2022-11-07T09:10:25.546Z,41.42
2022-11-07T09:12:54.082Z,36.45
2022-11-07T09:15:22.585Z,42.72
2022-11-07T09:17:51.203Z,34.42
2022-11-07T09:20:19.865Z,42.30
2022-11-07T09:22:48.445Z,40.30
2022-11-07T09:25:16.512Z,38.13
2022-11-07T09:27:47.696Z,43.80
2022-11-07T09:30:15.764Z,43.67
2022-11-07T09:32:45.285Z,37.92
2022-11-07T09:35:14.255Z,37.55
2022-11-07T09:37:43.319Z,40.08
2022-11-07T09:40:24.802Z,34.42
2022-11-07T09:43:06.859Z,42.30
2022-11-07T09:45:44.445Z,35.90
2022-11-07T09:48:21.155Z,40.92
2022-11-07T09:50:51.741Z,35.83
2022-11-07T09:53:27.380Z,38.65
2022-11-07T09:55:58.626Z,33.28
2022-11-07T09:58:34.790Z,38.33
2022-11-07T10:01:07.066Z,32.13
2022-11-07T10:03:37.851Z,33.28
2022-11-07T10:06:17.053Z,35.08
2022-11-07T10:08:51.835Z,37.30
2022-11-07T10:11:33.657Z,32.40
2022-11-07T10:14:11.416Z,33.85
2022-11-07T10:16:52.783Z,30.63
2022-11-07T10:19:31.077Z,34.53
2022-11-07T10:22:12.886Z,33.10
2022-11-07T10:24:56.266Z,28.55
2022-11-07T10:27:24.472Z,34.75
2022-11-07T10:29:56.399Z,35.03
2022-11-07T10:32:27.188Z,42.50
2022-11-07T10:35:06.599Z,34.63
2022-11-07T10:37:34.614Z,33.50
2022-11-07T10:40:02.650Z,25.50
2022-11-07T10:42:32.509Z,29.58
2022-11-07T10:45:01.934Z,29.58
2022-11-07T10:47:29.977Z,28.15
2022-11-07T10:50:00.255Z,32.28
2022-11-07T10:52:29.842Z,28.23
2022-11-07T10:55:08.933Z,27.75
2022-11-07T10:57:37.258Z,29.23
2022-11-07T11:00:22.816Z,27.65
2022-11-07T11:02:51.631Z,28.63
2022-11-07T11:05:26.549Z,29.58
2022-11-07T11:07:56.647Z,25.77
2022-11-07T11:10:27.673Z,26.52
2022-11-07T11:12:56.354Z,22.90
2022-11-07T11:15:35.374Z,23.48
2022-11-07T11:18:06.541Z,21.42
2022-11-07T11:20:38.044Z,24.70
2022-11-07T11:23:08.699Z,24.65
2022-11-07T11:25:46.204Z,28.85
2022-11-07T11:28:25.033Z,30.77
2022-11-07T11:30:59.488Z,33.78
2022-11-07T11:33:33.048Z,27.58
2022-11-07T11:36:05.351Z,22.48
2022-11-07T11:38:37.694Z,20.95
2022-11-07T11:41:14.512Z,22.52
2022-11-07T11:43:47.820Z,22.05
2022-11-07T11:46:25.333Z,22.65
2022-11-07T11:49:00.874Z,24.90
2022-11-07T11:51:38.633Z,21.45
2022-11-07T11:54:10.338Z,23.92
2022-11-07T11:56:51.312Z,30.42
2022-11-07T11:59:39.056Z,29.08
2022-11-07T12:02:39.778Z,23.30
2022-11-07T12:05:24.455Z,25.98
2022-11-07T12:08:05.865Z,21.20
2022-11-07T12:10:42.508Z,18.00
2022-11-07T12:13:18.735Z,16.83
2022-11-07T12:15:58.067Z,13.80
2022-11-07T12:18:36.953Z,14.93
2022-11-07T12:21:17.950Z,12.02
2022-11-07T12:24:00.667Z,9.30
2022-11-07T12:26:34.718Z,13.90
2022-11-07T12:29:13.121Z,9.05
2022-11-07T12:31:55.679Z,13.48
2022-11-07T12:34:36.995Z,10.43
2022-11-07T12:37:23.287Z,10.93
2022-11-07T12:40:08.370Z,10.35
2022-11-07T12:42:55.908Z,8.55
2022-11-07T12:45:40.618Z,10.55
2022-11-07T12:48:38.643Z,12.98
2022-11-07T12:51:17.566Z,8.77
2022-11-07T12:53:58.735Z,10.60
2022-11-07T12:56:32.946Z,10.23
2022-11-07T12:59:05.154Z,12.18
2022-11-07T13:01:41.169Z,8.88
2022-11-07T13:04:19.965Z,9.93
2022-11-07T13:07:01.571Z,6.32
2022-11-07T13:09:35.698Z,7.97
2022-11-07T13:12:12.672Z,7.63
2022-11-07T13:14:42.754Z,11.73
2022-11-07T13:17:20.123Z,7.20
2022-11-07T13:20:00.403Z,6.82
2022-11-07T13:22:36.800Z,8.90
2022-11-07T13:25:23.359Z,9.82
2022-11-07T13:28:16.708Z,8.18
2022-11-07T13:30:55.502Z,7.63
2022-11-07T13:33:29.633Z,8.25
2022-11-07T13:36:00.929Z,5.38
2022-11-07T13:38:31.063Z,7.72
2022-11-07T13:41:04.109Z,7.05
2022-11-07T13:43:40.270Z,7.70
2022-11-07T13:46:14.716Z,6.70
2022-11-07T13:48:50.093Z,8.32
2022-11-07T13:51:23.034Z,8.50
2022-11-07T13:54:03.370Z,7.70
2022-11-07T13:56:37.929Z,6.25
2022-11-07T13:59:13.579Z,11.00
2022-11-07T14:01:44.550Z,5.75
2022-11-07T14:04:17.582Z,7.65
2022-11-07T14:06:46.045Z,8.40
2022-11-07T14:09:20.128Z,9.02
2022-11-07T14:11:51.435Z,11.43
2022-11-07T14:14:20.010Z,6.13
2022-11-07T14:16:48.340Z,7.22
2022-11-07T14:19:18.804Z,7.18
2022-11-07T14:21:48.180Z,9.80
2022-11-07T14:24:26.657Z,7.53
2022-11-07T14:27:07.468Z,7.80
2022-11-07T14:29:35.940Z,5.00
2022-11-07T14:32:06.664Z,11.35
2022-11-07T14:34:36.649Z,9.90
2022-11-07T14:37:07.929Z,6.90
2022-11-07T14:39:37.794Z,12.75
2022-11-07T14:42:06.329Z,8.38
2022-11-07T14:44:53.998Z,10.80
2022-11-07T14:47:25.193Z,14.40
2022-11-07T14:49:54.822Z,9.52
2022-11-07T14:52:26.240Z,9.40
2022-11-07T14:55:01.243Z,10.23
2022-11-07T14:57:29.611Z,8.18
2022-11-07T14:59:57.839Z,9.52
2022-11-07T15:02:30.788Z,9.30
2022-11-07T15:05:06.778Z,9.80
2022-11-07T15:07:47.915Z,10.18
2022-11-07T15:10:27.618Z,8.85
2022-11-07T15:12:58.544Z,18.23
2022-11-07T15:15:30.386Z,14.05
2022-11-07T15:18:02.117Z,12.27
2022-11-07T15:20:40.097Z,9.30
2022-11-07T15:23:29.115Z,15.50
2022-11-07T15:26:01.320Z,13.25
2022-11-07T15:28:31.253Z,9.38
2022-11-07T15:31:01.060Z,14.93
2022-11-07T15:33:32.375Z,11.20
2022-11-07T15:36:02.255Z,10.73
2022-11-07T15:38:30.917Z,8.27
2022-11-07T15:41:00.397Z,11.00
2022-11-07T15:43:28.468Z,14.82
2022-11-07T15:45:57.942Z,12.02
2022-11-07T15:48:36.891Z,15.40
2022-11-07T15:51:09.696Z,13.23
2022-11-07T15:53:37.799Z,13.88
2022-11-07T15:56:09.083Z,11.95
2022-11-07T15:58:37.286Z,19.92
2022-11-07T16:01:05.362Z,20.42
2022-11-07T16:03:33.454Z,17.55
2022-11-07T16:06:02.738Z,14.70
2022-11-07T16:08:32.031Z,19.23
2022-11-07T16:11:02.405Z,20.70
2022-11-07T16:13:31.906Z,22.88
2022-11-07T16:16:03.293Z,17.13
2022-11-07T16:18:37.286Z,21.48
2022-11-07T16:21:06.073Z,13.75
2022-11-07T16:23:34.240Z,18.60
2022-11-07T16:26:02.655Z,16.23
2022-11-07T16:28:33.905Z,17.02
2022-11-07T16:31:03.478Z,18.77
2022-11-07T16:33:32.287Z,17.45
2022-11-07T16:36:04.945Z,13.82
2022-11-07T16:41:03.825Z,14.73
2022-11-07T16:43:35.282Z,11.32
2022-11-07T16:46:03.427Z,14.00
2022-11-07T16:48:32.659Z,9.52
2022-11-07T16:51:00.794Z,11.80
2022-11-07T16:53:28.970Z,12.07
2022-11-07T16:56:02.139Z,10.23
2022-11-07T16:58:33.041Z,11.10
2022-11-07T17:01:04.984Z,9.80
2022-11-07T17:03:33.881Z,13.98
2022-11-07T17:06:04.056Z,13.38
2022-11-07T17:08:39.561Z,12.55
2022-11-07T17:11:08.072Z,11.85
2022-11-07T17:13:37.622Z,10.40
2022-11-07T17:16:16.428Z,14.80
2022-11-07T17:18:47.193Z,13.32
2022-11-07T17:21:26.957Z,10.52
2022-11-07T17:23:56.740Z,18.63
2022-11-07T17:26:26.678Z,14.90
2022-11-07T17:28:56.280Z,16.92
2022-11-07T17:31:25.015Z,16.92
2022-11-07T17:33:53.562Z,16.95
2022-11-07T17:36:36.649Z,16.92
2022-11-07T17:39:12.514Z,15.63
2022-11-07T17:41:42.673Z,17.90
2022-11-07T17:44:15.743Z,18.40
2022-11-07T17:46:45.607Z,16.42
2022-11-07T17:49:15.777Z,14.38
2022-11-07T17:51:44.816Z,15.45
2022-11-07T17:54:14.944Z,15.68
2022-11-07T17:56:44.280Z,15.80
2022-11-07T17:59:17.508Z,14.50
2022-11-07T18:01:46.910Z,13.68
2022-11-07T18:04:15.891Z,10.63
2022-11-07T18:06:44.838Z,13.20
2022-11-07T18:09:15.982Z,12.80
2022-11-07T18:11:45.132Z,14.85
2022-11-07T18:14:15.780Z,12.98
2022-11-07T18:16:44.185Z,10.50
2022-11-07T18:19:13.281Z,13.68
2022-11-07T18:21:41.421Z,14.27
2022-11-07T18:24:10.722Z,10.80
2022-11-07T18:26:40.385Z,10.88
2022-11-07T18:29:12.145Z,13.60
2022-11-07T18:31:42.457Z,11.10
2022-11-07T18:34:13.535Z,9.90
2022-11-07T18:36:43.618Z,15.18
2022-11-07T18:39:15.568Z,12.90
2022-11-07T18:41:44.850Z,11.10
2022-11-07T18:44:13.932Z,11.95
2022-11-07T18:46:44.134Z,14.60
2022-11-07T18:49:14.434Z,20.05
2022-11-07T18:51:44.467Z,20.75
2022-11-07T18:54:14.599Z,22.45
2022-11-07T18:56:43.966Z,22.48
2022-11-07T18:59:12.999Z,29.95
2022-11-07T19:01:44.051Z,39.25
2022-11-07T19:04:13.435Z,49.55
2022-11-07T19:06:56.236Z,45.15
2022-11-07T19:09:27.836Z,34.90
2022-11-07T19:11:57.195Z,45.33
2022-11-07T19:14:25.896Z,23.05
2022-11-07T19:16:56.717Z,19.00
2022-11-07T19:19:25.333Z,19.35
2022-11-07T19:21:54.015Z,20.15
2022-11-07T19:24:25.970Z,16.77
2022-11-07T19:26:57.323Z,17.38
2022-11-07T19:29:26.467Z,21.42
2022-11-07T19:31:55.003Z,19.95
2022-11-07T19:34:26.110Z,42.95
2022-11-07T19:36:54.614Z,39.65
2022-11-07T19:39:23.458Z,42.33
2022-11-07T19:41:52.299Z,52.80
2022-11-07T19:44:24.570Z,54.90
2022-11-07T19:46:53.072Z,52.63
2022-11-07T19:49:21.522Z,60.10
2022-11-07T19:51:52.704Z,60.03
2022-11-07T19:54:20.879Z,72.72
2022-11-07T19:56:51.970Z,73.80
2022-11-07T19:59:25.781Z,86.32
2022-11-07T20:02:31.093Z,83.80
2022-11-07T20:04:51.115Z,62.67
2022-11-07T20:07:21.517Z,48.63
2022-11-07T20:09:49.986Z,39.70
2022-11-07T20:12:18.920Z,41.88
2022-11-07T20:14:49.415Z,43.30
2022-11-07T20:17:17.932Z,46.28
2022-11-07T20:19:46.378Z,52.20
2022-11-07T20:22:14.700Z,54.95
2022-11-07T20:24:44.492Z,51.42
2022-11-07T20:27:13.014Z,46.30
2022-11-07T20:29:45.604Z,44.33
2022-11-07T20:32:14.153Z,43.70
2022-11-07T20:34:42.765Z,40.85
2022-11-07T20:37:11.281Z,45.33
2022-11-07T20:39:45.785Z,43.88
2022-11-07T20:42:15.769Z,44.17
2022-11-07T20:44:44.333Z,43.72
2022-11-07T20:47:13.574Z,42.97
2022-11-07T20:49:42.632Z,45.15
2022-11-07T20:52:11.416Z,43.75
2022-11-07T20:54:39.847Z,40.63
2022-11-07T20:57:09.796Z,43.13
2022-11-07T20:59:41.633Z,45.80
2022-11-07T21:02:14.912Z,41.13
2022-11-07T21:05:03.331Z,41.22
2022-11-07T21:07:31.979Z,36.17
2022-11-07T21:10:00.120Z,36.72
2022-11-07T21:12:28.654Z,42.33
2022-11-07T21:14:58.136Z,41.78
2022-11-07T21:17:26.152Z,40.90
2022-11-07T21:19:54.740Z,45.05
2022-11-07T21:22:28.086Z,34.38
2022-11-07T21:24:57.583Z,30.77
2022-11-07T21:27:26.465Z,37.03
2022-11-07T21:29:54.885Z,36.53
2022-11-07T21:32:24.481Z,32.33
2022-11-07T21:34:52.963Z,28.65
2022-11-07T21:37:21.040Z,29.45
2022-11-07T21:39:49.161Z,25.30
2022-11-07T21:42:17.305Z,33.55
2022-11-07T21:44:45.527Z,29.48
2022-11-07T21:47:13.634Z,30.30
2022-11-07T21:49:43.008Z,24.50
2022-11-07T21:52:11.412Z,26.70
2022-11-07T21:54:39.426Z,25.67
2022-11-07T21:57:07.473Z,24.45
2022-11-07T21:59:35.658Z,25.33
2022-11-07T22:02:03.785Z,24.65
2022-11-07T22:04:31.806Z,31.17
2022-11-07T22:07:02.245Z,27.52
2022-11-07T22:09:30.276Z,27.48
2022-11-07T22:11:58.282Z,29.27
2022-11-07T22:14:26.434Z,26.92
2022-11-07T22:16:56.464Z,31.92
2022-11-07T22:19:24.561Z,33.10
2022-11-07T22:21:52.552Z,32.90
2022-11-07T22:24:23.876Z,24.77
2022-11-07T22:26:51.880Z,26.60
2022-11-07T22:29:20.023Z,27.60
2022-11-07T22:31:48.061Z,36.97
2022-11-07T22:34:16.213Z,30.15
2022-11-07T22:36:44.341Z,31.73
2022-11-07T22:39:12.351Z,33.83
2022-11-07T22:41:41.712Z,28.27
2022-11-07T22:44:09.739Z,28.13
2022-11-07T22:46:37.703Z,24.77
2022-11-07T22:49:06.630Z,29.55
2022-11-07T22:51:36.242Z,41.55
2022-11-07T22:54:06.643Z,24.33
2022-11-07T22:56:36.462Z,24.35
2022-11-07T22:59:06.980Z,26.58
2022-11-07T23:01:37.506Z,35.33
2022-11-07T23:04:06.095Z,29.48
2022-11-07T23:06:34.614Z,26.63
2022-11-07T23:09:03.388Z,25.83
2022-11-07T23:11:49.181Z,29.55
2022-11-07T23:14:20.762Z,26.92
2022-11-07T23:16:50.819Z,28.10
2022-11-07T23:19:21.127Z,33.60
2022-11-07T23:21:50.993Z,30.00
2022-11-07T23:24:20.779Z,28.25
2022-11-07T23:26:49.534Z,36.55
2022-11-07T23:29:23.020Z,32.55
2022-11-07T23:31:52.595Z,31.02
2022-11-07T23:34:23.164Z,29.92
2022-11-07T23:36:53.294Z,35.03
2022-11-07T23:39:26.130Z,29.35
2022-11-07T23:44:26.115Z,29.40
2022-11-07T23:47:12.374Z,31.42
2022-11-07T23:49:58.457Z,34.58
2022-11-07T23:52:27.914Z,36.00
2022-11-07T23:55:14.205Z,36.50
2022-11-07T23:57:56.999Z,36.42
